createdAt,value
2019-03-11T00:01:39.703Z,36.37
2019-03-11T00:04:09.809Z,36.28
2019-03-11T00:06:38.068Z,36.45
2019-03-11T00:09:07.212Z,36.88
2019-03-11T00:11:36.474Z,36.58
2019-03-11T00:14:05.531Z,36.52
2019-03-11T00:16:34.670Z,36.53
2019-03-11T00:19:03.745Z,36.91
2019-03-11T00:21:32.825Z,37.13
2019-03-11T00:24:02.041Z,36.76
2019-03-11T00:26:31.108Z,37.29
2019-03-11T00:29:00.193Z,37.05
2019-03-11T00:31:29.411Z,37.31
2019-03-11T00:33:58.650Z,37.23
2019-03-11T00:36:27.662Z,37.36
2019-03-11T00:38:56.800Z,37.17
2019-03-11T00:41:25.780Z,37.23
2019-03-11T00:43:54.859Z,37.82
2019-03-11T00:46:24.175Z,38.00
2019-03-11T00:48:53.315Z,38.34
2019-03-11T00:51:22.387Z,37.99
2019-03-11T00:53:51.478Z,38.10
2019-03-11T00:56:21.041Z,38.61
2019-03-11T00:58:50.052Z,38.25
2019-03-11T01:01:19.188Z,38.47
2019-03-11T01:03:48.323Z,38.73
2019-03-11T01:06:17.346Z,38.93
2019-03-11T01:08:46.846Z,38.62
2019-03-11T01:11:15.905Z,39.17
2019-03-11T01:13:44.959Z,39.28
2019-03-11T01:16:14.040Z,39.13
2019-03-11T01:18:43.171Z,39.62
2019-03-11T01:21:12.242Z,39.85
2019-03-11T01:23:41.323Z,39.89
2019-03-11T01:26:10.493Z,40.65
2019-03-11T01:28:39.457Z,40.78
2019-03-11T01:31:09.036Z,41.10
2019-03-11T01:33:38.205Z,41.43
2019-03-11T01:36:07.261Z,41.59
2019-03-11T01:38:36.930Z,42.12
2019-03-11T01:41:06.077Z,42.26
2019-03-11T01:43:35.219Z,42.54
2019-03-11T01:46:04.539Z,42.22
2019-03-11T01:48:33.661Z,42.56
2019-03-11T01:51:03.033Z,42.61
2019-03-11T01:53:32.300Z,42.85
2019-03-11T01:56:01.491Z,43.19
2019-03-11T01:58:30.442Z,43.76
2019-03-11T02:00:59.513Z,43.82
2019-03-11T02:03:28.541Z,43.64
2019-03-11T02:05:57.514Z,44.08
2019-03-11T02:08:26.578Z,44.39
2019-03-11T02:10:55.537Z,44.79
2019-03-11T02:13:24.514Z,44.48
2019-03-11T02:15:53.349Z,44.35
2019-03-11T02:18:22.398Z,44.30
2019-03-11T02:20:51.492Z,43.55
2019-03-11T02:23:21.153Z,43.53
2019-03-11T02:25:50.316Z,43.92
2019-03-11T02:28:19.476Z,43.54
2019-03-11T02:30:48.499Z,43.20
2019-03-11T02:33:17.624Z,43.25
2019-03-11T02:35:46.654Z,43.54
2019-03-11T02:38:15.719Z,43.71
2019-03-11T02:40:44.779Z,43.69
2019-03-11T02:43:14.007Z,44.40
2019-03-11T02:45:43.176Z,44.21
2019-03-11T02:48:12.279Z,44.22
2019-03-11T02:50:41.441Z,44.97
2019-03-11T02:53:10.472Z,44.55
2019-03-11T02:55:39.487Z,44.76
2019-03-11T02:58:08.985Z,45.41
2019-03-11T03:00:38.142Z,45.14
2019-03-11T03:03:12.531Z,45.44
2019-03-11T03:05:47.799Z,45.46
2019-03-11T03:08:16.825Z,45.89
2019-03-11T03:10:45.985Z,45.88
2019-03-11T03:13:15.179Z,45.85
2019-03-11T03:15:44.214Z,45.54
2019-03-11T03:18:13.267Z,45.59
2019-03-11T03:20:42.362Z,45.60
2019-03-11T03:23:11.432Z,46.03
2019-03-11T03:25:40.460Z,45.86
2019-03-11T03:28:09.640Z,45.66
2019-03-11T03:30:38.687Z,45.70
2019-03-11T03:33:07.736Z,45.83
2019-03-11T03:35:36.750Z,45.68
2019-03-11T03:38:05.948Z,45.79
2019-03-11T03:40:35.146Z,45.92
2019-03-11T03:43:04.435Z,46.16
2019-03-11T03:45:36.396Z,45.62
2019-03-11T03:48:05.669Z,45.98
2019-03-11T03:50:36.909Z,45.95
2019-03-11T03:53:06.084Z,45.57
2019-03-11T03:55:35.205Z,46.12
2019-03-11T03:58:04.251Z,46.05
2019-03-11T04:00:33.397Z,46.22
2019-03-11T04:03:02.461Z,46.26
2019-03-11T04:05:31.636Z,46.13
2019-03-11T04:08:00.911Z,45.88
2019-03-11T04:10:32.454Z,46.35
2019-03-11T04:12:59.340Z,45.99
2019-03-11T04:15:28.891Z,46.37
2019-03-11T04:17:57.836Z,46.74
2019-03-11T04:20:26.990Z,46.39
2019-03-11T04:22:55.924Z,46.68
2019-03-11T04:25:25.175Z,46.78
2019-03-11T04:27:54.890Z,46.92
2019-03-11T04:30:24.346Z,46.93
2019-03-11T04:32:53.331Z,46.83
2019-03-11T04:35:22.469Z,47.01
2019-03-11T04:37:51.449Z,47.21
2019-03-11T04:40:20.537Z,47.42
2019-03-11T04:42:49.647Z,47.27
2019-03-11T04:45:18.759Z,47.38
2019-03-11T04:47:47.957Z,47.51
2019-03-11T04:50:17.080Z,47.73
2019-03-11T04:52:46.196Z,47.94
2019-03-11T04:55:15.401Z,48.27
2019-03-11T04:57:46.296Z,48.05
2019-03-11T05:00:17.548Z,48.29
2019-03-11T05:02:46.624Z,48.63
2019-03-11T05:05:15.769Z,48.61
2019-03-11T05:07:44.804Z,48.62
2019-03-11T05:10:16.047Z,48.49
2019-03-11T05:12:43.137Z,48.72
2019-03-11T05:15:12.357Z,48.59
2019-03-11T05:17:41.448Z,48.64
2019-03-11T05:20:11.052Z,48.88
2019-03-11T05:22:40.092Z,48.99
2019-03-11T05:25:09.669Z,48.94
2019-03-11T05:27:38.833Z,49.55
2019-03-11T05:30:09.800Z,49.61
2019-03-11T05:32:38.918Z,49.62
2019-03-11T05:35:08.119Z,49.73
2019-03-11T05:37:37.296Z,49.45
2019-03-11T05:40:06.410Z,48.93
2019-03-11T05:42:35.545Z,48.93
2019-03-11T05:45:04.813Z,48.56
2019-03-11T05:47:33.801Z,49.00
2019-03-11T05:50:03.003Z,49.03
2019-03-11T05:52:32.725Z,48.75
2019-03-11T05:55:01.623Z,48.72
2019-03-11T05:57:30.738Z,49.09
2019-03-11T05:59:59.829Z,48.27
2019-03-11T06:02:28.797Z,48.74
2019-03-11T06:04:57.815Z,48.96
2019-03-11T06:07:26.897Z,48.68
2019-03-11T06:09:55.975Z,48.96
2019-03-11T06:12:25.202Z,48.97
2019-03-11T06:14:54.370Z,48.79
2019-03-11T06:17:23.394Z,48.70
2019-03-11T06:19:56.612Z,48.49
2019-03-11T06:22:28.294Z,48.34
2019-03-11T06:24:57.364Z,47.99
2019-03-11T06:27:26.529Z,48.85
2019-03-11T06:29:55.646Z,48.65
2019-03-11T06:32:24.756Z,48.49
2019-03-11T06:34:53.821Z,47.59
2019-03-11T06:37:23.503Z,47.08
2019-03-11T06:39:53.118Z,47.20
2019-03-11T06:42:22.220Z,47.86
2019-03-11T06:44:51.335Z,47.73
2019-03-11T06:47:21.157Z,47.67
2019-03-11T06:49:50.219Z,47.50
2019-03-11T06:52:19.328Z,46.71
2019-03-11T06:54:48.466Z,46.05
2019-03-11T06:57:17.522Z,46.65
2019-03-11T06:59:46.593Z,47.33
2019-03-11T07:02:15.745Z,46.84
2019-03-11T07:04:44.802Z,45.55
2019-03-11T07:07:14.576Z,45.67
2019-03-11T07:09:43.702Z,45.84
2019-03-11T07:12:12.839Z,46.05
2019-03-11T07:14:41.924Z,45.82
2019-03-11T07:17:10.983Z,46.16
2019-03-11T07:19:40.091Z,46.25
2019-03-11T07:22:09.289Z,46.14
2019-03-11T07:24:38.395Z,45.88
2019-03-11T07:27:07.495Z,45.80
2019-03-11T07:29:36.718Z,46.75
2019-03-11T07:32:05.917Z,45.26
2019-03-11T07:34:34.990Z,45.14
2019-03-11T07:37:04.773Z,45.34
2019-03-11T07:39:33.808Z,45.33
2019-03-11T07:42:02.926Z,45.08
2019-03-11T07:44:32.053Z,44.71
2019-03-11T07:47:01.195Z,44.90
2019-03-11T07:49:30.494Z,44.07
2019-03-11T07:52:02.555Z,43.24
2019-03-11T07:54:35.779Z,43.15
2019-03-11T07:56:58.408Z,43.33
2019-03-11T07:59:27.477Z,43.02
2019-03-11T08:01:56.460Z,43.01
2019-03-11T08:04:25.650Z,44.13
2019-03-11T08:06:54.872Z,44.14
2019-03-11T08:09:24.178Z,43.66
2019-03-11T08:11:53.777Z,42.48
2019-03-11T08:14:22.877Z,41.88
2019-03-11T08:16:51.973Z,42.54
2019-03-11T08:19:21.119Z,42.75
2019-03-11T08:21:50.188Z,42.18
2019-03-11T08:24:19.282Z,42.10
2019-03-11T08:26:48.415Z,41.03
2019-03-11T08:29:17.514Z,41.51
2019-03-11T08:31:46.389Z,40.91
2019-03-11T08:34:15.524Z,40.71
2019-03-11T08:36:44.671Z,40.86
2019-03-11T08:39:13.803Z,39.30
2019-03-11T08:41:42.784Z,39.89
2019-03-11T08:44:12.033Z,40.26
2019-03-11T08:46:41.334Z,39.97
2019-03-11T08:49:10.474Z,40.05
2019-03-11T08:51:39.469Z,40.87
2019-03-11T08:54:08.537Z,39.94
2019-03-11T08:56:37.962Z,40.18
2019-03-11T08:59:06.819Z,41.05
2019-03-11T09:01:36.056Z,40.15
2019-03-11T09:04:05.258Z,40.15
2019-03-11T09:06:34.341Z,39.84
2019-03-11T09:09:03.685Z,39.53
2019-03-11T09:11:33.048Z,38.88
2019-03-11T09:14:02.117Z,38.42
2019-03-11T09:16:31.760Z,38.38
2019-03-11T09:19:00.816Z,38.45
2019-03-11T09:21:30.068Z,38.72
2019-03-11T09:23:59.124Z,38.60
2019-03-11T09:26:28.273Z,37.76
2019-03-11T09:28:57.324Z,37.67
2019-03-11T09:31:26.401Z,37.18
2019-03-11T09:33:55.545Z,37.42
2019-03-11T09:36:24.631Z,36.76
2019-03-11T09:38:53.697Z,36.19
2019-03-11T09:41:22.821Z,35.96
2019-03-11T09:43:51.816Z,36.45
2019-03-11T09:46:20.903Z,36.26
2019-03-11T09:48:50.029Z,37.25
2019-03-11T09:51:19.162Z,37.43
2019-03-11T09:53:48.370Z,37.30
2019-03-11T09:56:17.487Z,37.70
2019-03-11T09:58:46.660Z,38.24
2019-03-11T10:01:15.873Z,38.22
2019-03-11T10:03:45.080Z,39.58
2019-03-11T10:06:14.225Z,39.12
2019-03-11T10:08:43.375Z,39.52
2019-03-11T10:11:12.427Z,39.76
2019-03-11T10:13:41.555Z,40.40
2019-03-11T10:16:10.670Z,40.42
2019-03-11T10:18:39.953Z,40.63
2019-03-11T10:21:09.065Z,40.90
2019-03-11T10:23:38.272Z,41.23
2019-03-11T10:26:07.377Z,41.21
2019-03-11T10:28:36.491Z,41.38
2019-03-11T10:31:05.550Z,41.33
2019-03-11T10:33:34.665Z,41.19
2019-03-11T10:36:03.833Z,40.87
2019-03-11T10:38:32.918Z,40.40
2019-03-11T10:41:01.964Z,39.95
2019-03-11T10:43:31.997Z,39.44
2019-03-11T10:46:01.037Z,39.07
2019-03-11T10:48:37.133Z,40.05
2019-03-11T10:50:59.472Z,40.65
2019-03-11T10:53:28.530Z,41.30
2019-03-11T10:55:59.901Z,41.09
2019-03-11T10:58:29.044Z,41.46
2019-03-11T11:00:55.947Z,41.21
2019-03-11T11:03:25.058Z,41.83
2019-03-11T11:05:54.141Z,41.74
2019-03-11T11:08:23.211Z,41.54
2019-03-11T11:10:52.366Z,41.50
2019-03-11T11:13:22.199Z,42.03
2019-03-11T11:15:51.318Z,41.64
2019-03-11T11:18:20.456Z,41.61
2019-03-11T11:20:49.425Z,41.32
2019-03-11T11:23:18.624Z,41.14
2019-03-11T11:25:47.745Z,41.41
2019-03-11T11:28:16.806Z,41.38
2019-03-11T11:30:45.912Z,40.94
2019-03-11T11:33:15.052Z,40.84
2019-03-11T11:35:44.178Z,39.57
2019-03-11T11:38:13.316Z,40.03
2019-03-11T11:40:42.484Z,39.87
2019-03-11T11:43:11.597Z,39.29
2019-03-11T11:45:40.782Z,39.64
2019-03-11T11:48:09.843Z,39.86
2019-03-11T11:50:38.964Z,38.75
2019-03-11T11:53:08.100Z,38.52
2019-03-11T11:55:37.247Z,39.33
2019-03-11T11:58:06.277Z,39.53
2019-03-11T12:00:35.956Z,39.22
2019-03-11T12:03:05.259Z,39.52
2019-03-11T12:05:34.287Z,39.40
2019-03-11T12:08:03.370Z,39.93
2019-03-11T12:10:32.666Z,39.15
2019-03-11T12:13:01.782Z,38.80
2019-03-11T12:15:30.835Z,37.69
2019-03-11T12:17:59.931Z,37.33
2019-03-11T12:20:29.800Z,37.49
2019-03-11T12:22:58.957Z,37.53
2019-03-11T12:25:28.197Z,37.63
2019-03-11T12:27:58.307Z,37.20
2019-03-11T12:30:27.210Z,37.25
2019-03-11T12:32:56.623Z,36.98
2019-03-11T12:35:26.096Z,36.89
2019-03-11T12:37:55.388Z,37.29
2019-03-11T12:40:24.926Z,36.28
2019-03-11T12:42:54.272Z,36.36
2019-03-11T12:45:23.702Z,36.39
2019-03-11T12:47:53.013Z,36.53
2019-03-11T12:50:22.601Z,35.66
2019-03-11T12:52:51.999Z,34.74
2019-03-11T12:55:21.935Z,34.10
2019-03-11T12:57:50.722Z,33.75
2019-03-11T13:00:20.322Z,33.81
2019-03-11T13:02:49.781Z,32.46
2019-03-11T13:05:19.005Z,32.91
2019-03-11T13:07:48.532Z,32.76
2019-03-11T13:10:18.986Z,33.63
2019-03-11T13:12:48.503Z,33.98
2019-03-11T13:15:17.964Z,35.36
2019-03-11T13:17:47.421Z,35.80
2019-03-11T13:20:21.192Z,37.37
2019-03-11T13:22:51.154Z,37.26
2019-03-11T13:25:20.391Z,37.53
2019-03-11T13:27:49.814Z,37.68
2019-03-11T13:30:19.103Z,38.50
2019-03-11T13:32:48.514Z,37.41
2019-03-11T13:35:17.866Z,36.01
2019-03-11T13:37:47.218Z,35.79
2019-03-11T13:40:16.851Z,35.42
2019-03-11T13:42:46.222Z,35.50
2019-03-11T13:45:15.641Z,35.15
2019-03-11T13:47:44.978Z,35.31
2019-03-11T13:50:14.531Z,35.00
2019-03-11T13:52:43.857Z,33.73
2019-03-11T13:55:13.357Z,33.36
2019-03-11T13:57:42.654Z,33.29
2019-03-11T14:00:12.363Z,34.56
2019-03-11T14:02:41.695Z,35.98
2019-03-11T14:05:10.975Z,36.24
2019-03-11T14:07:40.246Z,37.12
2019-03-11T14:10:10.213Z,38.05
2019-03-11T14:12:39.447Z,39.16
2019-03-11T14:15:09.096Z,39.78
2019-03-11T14:17:38.503Z,41.19
2019-03-11T14:20:07.995Z,42.19
2019-03-11T14:22:37.396Z,42.46
2019-03-11T14:25:06.783Z,42.51
2019-03-11T14:27:36.106Z,42.84
2019-03-11T14:30:05.652Z,42.96
2019-03-11T14:32:34.947Z,43.06
2019-03-11T14:35:04.330Z,43.18
2019-03-11T14:37:33.507Z,43.39
2019-03-11T14:40:02.858Z,44.02
2019-03-11T14:42:32.110Z,44.12
2019-03-11T14:45:01.304Z,45.19
2019-03-11T14:47:30.554Z,45.56
2019-03-11T14:49:59.707Z,45.53
2019-03-11T14:52:29.021Z,46.15
2019-03-11T14:54:58.232Z,46.31
2019-03-11T14:57:27.438Z,46.63
2019-03-11T14:59:56.602Z,46.48
2019-03-11T15:02:25.834Z,47.39
2019-03-11T15:04:55.111Z,48.36
2019-03-11T15:07:24.413Z,48.28
2019-03-11T15:09:54.673Z,47.96
2019-03-11T15:12:23.332Z,47.82
2019-03-11T15:14:52.732Z,48.29
2019-03-11T15:17:21.994Z,48.58
2019-03-11T15:19:51.438Z,49.14
2019-03-11T15:22:22.413Z,49.81
2019-03-11T15:24:50.277Z,49.89
2019-03-11T15:27:19.541Z,50.46
2019-03-11T15:29:48.877Z,51.54
2019-03-11T15:32:18.199Z,51.39
2019-03-11T15:34:47.448Z,51.98
2019-03-11T15:37:16.895Z,51.32
2019-03-11T15:39:46.285Z,51.76
2019-03-11T15:42:15.424Z,51.96
2019-03-11T15:44:44.637Z,51.88
2019-03-11T15:47:13.997Z,53.33
2019-03-11T15:49:43.142Z,53.72
2019-03-11T15:52:12.472Z,53.26
2019-03-11T15:54:41.760Z,53.85
2019-03-11T15:57:11.030Z,54.06
2019-03-11T15:59:40.345Z,54.85
2019-03-11T16:02:09.609Z,54.39
2019-03-11T16:04:38.858Z,55.08
2019-03-11T16:07:08.154Z,56.90
2019-03-11T16:09:37.499Z,55.57
2019-03-11T16:12:06.898Z,56.77
2019-03-11T16:14:36.159Z,54.65
2019-03-11T16:17:06.467Z,50.71
2019-03-11T16:19:35.899Z,52.61
2019-03-11T16:22:05.192Z,52.37
2019-03-11T16:24:34.664Z,54.85
2019-03-11T16:27:03.872Z,49.16
2019-03-11T16:29:39.710Z,49.00
2019-03-11T16:32:08.858Z,48.99
2019-03-11T16:34:38.046Z,46.81
2019-03-11T16:37:07.375Z,48.44
2019-03-11T16:39:36.541Z,46.70
2019-03-11T16:42:05.825Z,47.48
2019-03-11T16:44:35.142Z,47.31
2019-03-11T16:47:04.458Z,41.97
2019-03-11T16:49:33.857Z,45.33
2019-03-11T16:52:03.135Z,48.85
2019-03-11T16:54:32.546Z,51.37
2019-03-11T16:57:01.895Z,53.69
2019-03-11T16:59:31.162Z,55.48
2019-03-11T17:02:00.490Z,55.73
2019-03-11T17:04:29.874Z,57.39
2019-03-11T17:06:59.161Z,57.72
2019-03-11T17:09:28.465Z,58.21
2019-03-11T17:11:58.886Z,59.28
2019-03-11T17:14:28.220Z,60.07
2019-03-11T17:16:57.485Z,60.51
2019-03-11T17:19:26.823Z,60.99
2019-03-11T17:21:56.076Z,61.27
2019-03-11T17:24:24.992Z,61.66
2019-03-11T17:26:54.273Z,62.11
2019-03-11T17:29:23.481Z,61.94
2019-03-11T17:31:52.681Z,62.85
2019-03-11T17:34:21.809Z,63.93
2019-03-11T17:36:50.772Z,63.56
2019-03-11T17:39:20.380Z,63.60
2019-03-11T17:41:49.936Z,64.27
2019-03-11T17:44:18.880Z,64.84
2019-03-11T17:46:48.090Z,64.98
2019-03-11T17:49:17.817Z,67.46
2019-03-11T17:51:47.517Z,68.06
2019-03-11T17:54:16.797Z,68.90
2019-03-11T17:56:47.172Z,68.95
2019-03-11T17:59:16.357Z,68.89
2019-03-11T18:01:45.745Z,69.03
2019-03-11T18:04:14.653Z,69.53
2019-03-11T18:06:43.706Z,69.13
2019-03-11T18:09:12.920Z,69.29
2019-03-11T18:11:42.278Z,69.25
2019-03-11T18:14:11.733Z,69.24
2019-03-11T18:16:40.889Z,69.33
2019-03-11T18:19:09.848Z,68.53
2019-03-11T18:21:39.030Z,68.59
2019-03-11T18:24:08.545Z,68.51
2019-03-11T18:26:39.492Z,68.78
2019-03-11T18:29:09.108Z,68.57
2019-03-11T18:31:38.451Z,68.67
2019-03-11T18:34:07.613Z,68.63
2019-03-11T18:36:37.281Z,68.77
2019-03-11T18:39:08.103Z,68.60
2019-03-11T18:41:38.254Z,68.08
2019-03-11T18:44:08.055Z,68.98
2019-03-11T18:46:37.645Z,68.82
2019-03-11T18:49:06.761Z,68.50
2019-03-11T18:51:36.042Z,68.88
2019-03-11T18:54:05.791Z,68.59
2019-03-11T18:56:34.757Z,69.31
2019-03-11T18:59:03.969Z,69.07
2019-03-11T19:01:33.381Z,68.51
2019-03-11T19:04:03.603Z,67.36
2019-03-11T19:06:32.891Z,68.67
2019-03-11T19:09:02.434Z,67.83
2019-03-11T19:11:31.699Z,68.66
2019-03-11T19:14:01.181Z,67.92
2019-03-11T19:16:30.732Z,68.00
2019-03-11T19:18:59.736Z,67.92
2019-03-11T19:21:29.875Z,68.42
2019-03-11T19:23:59.162Z,67.55
2019-03-11T19:26:28.842Z,67.53
2019-03-11T19:28:57.945Z,68.08
2019-03-11T19:31:28.259Z,68.64
2019-03-11T19:33:57.359Z,69.03
2019-03-11T19:36:27.132Z,68.71
2019-03-11T19:38:57.050Z,68.42
2019-03-11T19:41:26.711Z,69.84
2019-03-11T19:43:56.397Z,68.98
2019-03-11T19:46:25.618Z,68.56
2019-03-11T19:48:54.484Z,68.60
2019-03-11T19:51:23.529Z,69.29
2019-03-11T19:53:54.596Z,69.32
2019-03-11T19:56:21.681Z,68.64
2019-03-11T19:58:51.129Z,69.71
2019-03-11T20:01:20.403Z,69.97
2019-03-11T20:03:49.577Z,69.51
2019-03-11T20:06:19.356Z,70.13
2019-03-11T20:08:49.564Z,70.66
2019-03-11T20:11:19.490Z,69.25
2019-03-11T20:13:48.459Z,69.82
2019-03-11T20:16:17.458Z,69.79
2019-03-11T20:18:46.637Z,69.89
2019-03-11T20:21:15.985Z,70.51
2019-03-11T20:23:44.902Z,70.01
2019-03-11T20:26:13.975Z,69.33
2019-03-11T20:28:44.064Z,69.97
2019-03-11T20:31:13.480Z,70.07
2019-03-11T20:33:42.436Z,69.75
2019-03-11T20:36:20.831Z,70.06
2019-03-11T20:38:42.874Z,70.47
2019-03-11T20:41:09.982Z,69.90
2019-03-11T20:43:39.524Z,70.78
2019-03-11T20:46:09.259Z,70.09
2019-03-11T20:48:38.544Z,70.41
2019-03-11T20:51:07.822Z,69.62
2019-03-11T20:53:36.809Z,70.16
2019-03-11T20:56:06.050Z,69.52
2019-03-11T20:58:35.053Z,69.66
2019-03-11T21:01:04.213Z,69.63
2019-03-11T21:03:33.791Z,70.07
2019-03-11T21:06:03.352Z,70.02
2019-03-11T21:08:32.568Z,70.29
2019-03-11T21:11:01.627Z,70.24
2019-03-11T21:13:30.937Z,70.57
2019-03-11T21:16:00.407Z,70.75
2019-03-11T21:18:29.525Z,70.66
2019-03-11T21:21:04.895Z,70.02
2019-03-11T21:23:28.433Z,70.36
2019-03-11T21:25:57.544Z,70.26
2019-03-11T21:28:26.694Z,70.78
2019-03-11T21:30:56.762Z,71.00
2019-03-11T21:33:26.589Z,71.39
2019-03-11T21:35:55.947Z,71.18
2019-03-11T21:38:25.160Z,70.83
2019-03-11T21:40:55.453Z,72.25
2019-03-11T21:43:24.599Z,71.14
2019-03-11T21:45:53.647Z,70.63
2019-03-11T21:48:22.595Z,70.50
2019-03-11T21:50:51.492Z,70.54
2019-03-11T21:53:20.559Z,70.17
2019-03-11T21:55:49.588Z,70.84
2019-03-11T21:58:19.169Z,70.77
2019-03-11T22:00:48.399Z,70.27
2019-03-11T22:03:17.503Z,69.74
2019-03-11T22:05:46.722Z,70.35
2019-03-11T22:08:16.316Z,70.04
2019-03-11T22:10:46.426Z,70.80
2019-03-11T22:13:15.593Z,71.29
2019-03-11T22:15:44.688Z,70.92
2019-03-11T22:18:14.092Z,70.66
2019-03-11T22:20:43.164Z,70.58
2019-03-11T22:23:12.294Z,70.96
2019-03-11T22:25:41.917Z,71.14
2019-03-11T22:28:11.052Z,71.11
2019-03-11T22:30:39.984Z,70.56
2019-03-11T22:33:09.293Z,70.84
2019-03-11T22:35:38.505Z,71.70
2019-03-11T22:38:07.482Z,71.03
2019-03-11T22:40:36.785Z,70.29
2019-03-11T22:43:07.024Z,69.60
2019-03-11T22:45:35.981Z,70.17
2019-03-11T22:48:04.882Z,70.04
2019-03-11T22:50:34.534Z,70.57
2019-03-11T22:53:04.540Z,70.22
2019-03-11T22:55:33.471Z,70.37
2019-03-11T22:58:02.644Z,70.00
2019-03-11T23:03:53.768Z,70.39
2019-03-11T23:06:22.809Z,70.17
2019-03-11T23:08:51.833Z,70.43
2019-03-11T23:11:21.053Z,70.63
2019-03-11T23:13:50.173Z,70.67
2019-03-11T23:16:19.398Z,69.72
2019-03-11T23:18:48.519Z,70.21
2019-03-11T23:21:17.618Z,70.68
2019-03-11T23:23:47.208Z,70.49
2019-03-11T23:26:16.040Z,71.11
2019-03-11T23:28:45.233Z,71.44
2019-03-11T23:31:14.335Z,71.72
2019-03-11T23:33:43.345Z,71.30
2019-03-11T23:36:13.296Z,71.71
2019-03-11T23:38:42.220Z,71.52
2019-03-11T23:41:11.300Z,71.37
2019-03-11T23:43:40.517Z,71.98
2019-03-11T23:46:10.536Z,72.54
2019-03-11T23:48:39.965Z,72.74
2019-03-11T23:51:08.710Z,72.15
2019-03-11T23:53:37.453Z,70.71
2019-03-11T23:56:06.728Z,71.47
2019-03-11T23:58:35.807Z,71.50
